createdAt,value
2022-11-04T00:04:26.187Z,9.30
2022-11-04T00:09:31.332Z,9.30
2022-11-04T00:14:35.512Z,9.20
2022-11-04T00:19:57.637Z,9.20
2022-11-04T00:25:20.385Z,9.20
2022-11-04T00:30:23.580Z,9.20
2022-11-04T00:35:28.175Z,9.20
2022-11-04T00:40:31.438Z,9.20
2022-11-04T00:45:34.861Z,9.30
2022-11-04T00:50:39.670Z,9.40
2022-11-04T00:55:42.909Z,9.50
2022-11-04T01:00:46.149Z,9.50
2022-11-04T01:05:50.785Z,9.50
2022-11-04T01:10:57.391Z,9.40
2022-11-04T01:16:00.932Z,9.30
2022-11-04T01:21:07.521Z,9.40
2022-11-04T01:26:13.695Z,9.40
2022-11-04T01:31:18.634Z,9.50
2022-11-04T01:36:24.461Z,9.40
2022-11-04T01:41:33.871Z,9.30
2022-11-04T01:46:42.880Z,9.30
2022-11-04T01:51:50.416Z,9.30
2022-11-04T01:56:55.271Z,9.30
2022-11-04T02:01:58.781Z,9.20
2022-11-04T02:07:07.192Z,9.10
2022-11-04T02:12:28.000Z,9.00
2022-11-04T02:17:41.390Z,9.00
2022-11-04T02:23:19.656Z,8.90
2022-11-04T02:28:48.151Z,8.80
2022-11-04T02:33:59.286Z,8.80
2022-11-04T02:39:09.285Z,8.70
2022-11-04T02:44:20.431Z,8.60
2022-11-04T02:49:30.310Z,8.50
2022-11-04T02:54:38.784Z,8.50
2022-11-04T02:59:47.339Z,8.50
2022-11-04T03:04:54.100Z,8.40
2022-11-04T03:10:02.688Z,8.40
2022-11-04T03:15:10.248Z,8.40
2022-11-04T03:20:19.888Z,8.30
2022-11-04T03:25:28.667Z,8.30
2022-11-04T03:30:37.838Z,8.20
2022-11-04T03:35:42.939Z,8.10
2022-11-04T03:40:46.311Z,8.10
2022-11-04T03:45:50.152Z,8.00
2022-11-04T03:50:54.881Z,7.90
2022-11-04T03:56:17.546Z,7.80
2022-11-04T04:01:28.690Z,7.70
2022-11-04T04:06:39.228Z,7.70
2022-11-04T04:11:46.942Z,7.70
2022-11-04T04:16:52.477Z,7.60
2022-11-04T04:22:04.372Z,7.50
2022-11-04T04:27:25.188Z,7.50
2022-11-04T04:32:31.118Z,7.60
2022-11-04T04:37:39.488Z,7.60
2022-11-04T04:43:00.413Z,7.50
2022-11-04T04:48:03.711Z,7.50
2022-11-04T04:53:08.724Z,7.40
2022-11-04T04:58:12.123Z,7.40
2022-11-04T05:03:15.413Z,7.30
2022-11-04T05:08:20.065Z,7.20
2022-11-04T05:13:30.321Z,7.20
2022-11-04T05:18:33.777Z,7.10
2022-11-04T05:23:38.608Z,7.10
2022-11-04T05:28:41.838Z,7.10
2022-11-04T05:33:45.034Z,7.00
2022-11-04T05:38:55.633Z,6.90
2022-11-04T05:44:00.330Z,6.80
2022-11-04T05:49:03.944Z,6.90
2022-11-04T05:54:09.431Z,6.80
2022-11-04T05:59:12.603Z,6.80
2022-11-04T06:04:17.354Z,6.70
2022-11-04T06:09:38.876Z,6.60
2022-11-04T06:14:42.343Z,6.60
2022-11-04T06:19:45.555Z,6.50
2022-11-04T06:24:50.261Z,6.40
2022-11-04T06:29:53.699Z,6.40
2022-11-04T06:34:57.348Z,6.50
2022-11-04T06:40:02.294Z,6.60
2022-11-04T06:45:06.547Z,6.50
2022-11-04T06:50:11.110Z,6.50
2022-11-04T06:55:15.852Z,6.50
2022-11-04T07:00:19.810Z,6.40
2022-11-04T07:05:23.047Z,6.40
2022-11-04T07:10:27.650Z,6.40
2022-11-04T07:15:32.887Z,6.50
2022-11-04T07:20:37.518Z,6.50
2022-11-04T07:25:42.182Z,6.60
2022-11-04T07:30:45.364Z,6.70
2022-11-04T07:35:48.589Z,6.80
2022-11-04T07:40:53.252Z,7.00
2022-11-04T07:46:03.420Z,7.10
2022-11-04T07:51:08.084Z,7.30
2022-11-04T07:56:14.463Z,7.50
2022-11-04T08:01:20.327Z,7.70
2022-11-04T08:06:23.602Z,8.00
2022-11-04T08:11:28.665Z,8.30
2022-11-04T08:16:34.444Z,8.70
2022-11-04T08:21:38.265Z,9.00
2022-11-04T08:26:43.528Z,9.40
2022-11-04T08:31:47.833Z,9.70
2022-11-04T08:36:54.376Z,10.00
2022-11-04T08:41:59.110Z,10.10
2022-11-04T08:47:02.442Z,9.90
2022-11-04T08:52:05.985Z,9.90
2022-11-04T08:57:10.612Z,9.80
2022-11-04T09:02:16.150Z,9.80
2022-11-04T09:07:19.487Z,9.60
2022-11-04T09:12:24.176Z,9.70
2022-11-04T09:17:27.361Z,9.80
2022-11-04T09:22:30.705Z,10.00
2022-11-04T09:27:35.314Z,10.20
2022-11-04T09:32:38.605Z,10.30
2022-11-04T09:37:41.796Z,10.50
2022-11-04T09:42:59.106Z,10.70
2022-11-04T09:48:07.334Z,11.00
2022-11-04T09:53:18.436Z,11.20
2022-11-04T09:58:23.355Z,11.60
2022-11-04T10:03:45.003Z,12.00
2022-11-04T10:09:01.994Z,12.00
2022-11-04T10:14:35.144Z,12.20
2022-11-04T10:19:52.077Z,12.50
2022-11-04T10:25:03.287Z,12.50
2022-11-04T10:30:16.020Z,12.40
2022-11-04T10:35:29.294Z,12.50
2022-11-04T10:40:38.985Z,12.40
2022-11-04T10:45:49.806Z,12.40
2022-11-04T10:50:57.047Z,12.50
2022-11-04T10:56:07.199Z,12.50
2022-11-04T11:01:28.954Z,12.50
2022-11-04T11:06:33.482Z,12.80
2022-11-04T11:11:39.968Z,12.80
2022-11-04T11:16:45.853Z,13.00
2022-11-04T11:21:51.744Z,12.80
2022-11-04T11:26:57.832Z,12.80
2022-11-04T11:32:02.532Z,13.00
2022-11-04T11:37:07.698Z,12.70
2022-11-04T11:42:16.206Z,12.90
2022-11-04T11:47:23.032Z,13.00
2022-11-04T11:52:34.427Z,13.30
2022-11-04T12:03:21.052Z,13.50
2022-11-04T12:14:07.495Z,13.30
2022-11-04T12:19:22.825Z,13.50
2022-11-04T12:24:39.494Z,13.60
2022-11-04T12:29:56.967Z,13.70
2022-11-04T12:35:17.218Z,13.90
2022-11-04T12:40:23.353Z,14.20
2022-11-04T12:45:39.615Z,14.30
2022-11-04T12:50:54.472Z,14.30
2022-11-04T12:56:06.589Z,14.40
2022-11-04T13:01:15.663Z,14.30
2022-11-04T13:06:25.444Z,14.20
2022-11-04T13:11:32.781Z,13.90
2022-11-04T13:16:39.839Z,13.60
2022-11-04T13:21:45.065Z,13.20
2022-11-04T13:26:48.329Z,13.10
2022-11-04T13:31:57.207Z,12.90
2022-11-04T13:37:12.967Z,12.70
2022-11-04T13:42:41.311Z,12.20
2022-11-04T13:47:50.531Z,11.70
2022-11-04T13:52:56.784Z,11.20
2022-11-04T13:58:02.731Z,10.80
2022-11-04T14:03:38.465Z,10.80
2022-11-04T14:09:23.895Z,11.20
2022-11-04T14:14:27.159Z,11.80
2022-11-04T14:20:01.320Z,12.00
2022-11-04T14:25:26.159Z,12.00
2022-11-04T14:30:34.059Z,11.70
2022-11-04T14:35:37.944Z,11.70
2022-11-04T14:40:52.314Z,11.90
2022-11-04T14:45:57.208Z,12.10
2022-11-04T14:51:00.636Z,11.90
2022-11-04T14:56:22.984Z,11.80
2022-11-04T15:01:34.273Z,11.50
2022-11-04T15:06:54.459Z,11.40
2022-11-04T15:12:28.054Z,11.30
2022-11-04T15:17:35.667Z,11.10
2022-11-04T15:22:48.302Z,10.70
2022-11-04T15:27:53.258Z,10.30
2022-11-04T15:32:58.236Z,9.80
2022-11-04T15:38:03.889Z,9.60
2022-11-04T15:43:08.696Z,9.50
2022-11-04T15:48:27.323Z,9.50
2022-11-04T15:53:30.575Z,9.30
2022-11-04T15:58:35.754Z,9.20
2022-11-04T16:03:38.992Z,9.00
2022-11-04T16:08:42.264Z,8.80
2022-11-04T16:13:47.719Z,8.70
2022-11-04T16:18:54.290Z,8.60
2022-11-04T16:24:02.017Z,8.50
2022-11-04T16:29:10.672Z,8.30
2022-11-04T16:34:15.071Z,8.20
2022-11-04T16:39:18.300Z,8.20
2022-11-04T16:44:25.067Z,8.20
2022-11-04T16:49:28.362Z,8.40
2022-11-04T16:54:31.568Z,8.60
2022-11-04T16:59:36.159Z,8.70
2022-11-04T17:04:39.486Z,8.80
2022-11-04T17:09:42.763Z,8.80
2022-11-04T17:14:47.476Z,8.80
2022-11-04T17:19:55.675Z,8.80
2022-11-04T17:24:59.007Z,8.80
2022-11-04T17:30:03.669Z,8.70
2022-11-04T17:35:17.199Z,8.60
2022-11-04T17:45:46.772Z,8.50
2022-11-04T17:50:49.973Z,8.40
2022-11-04T17:55:53.189Z,8.30
2022-11-04T18:01:01.882Z,8.20
2022-11-04T18:06:08.801Z,8.10
2022-11-04T18:11:33.542Z,8.10
2022-11-04T18:16:38.390Z,8.10
2022-11-04T18:21:44.047Z,8.10
2022-11-04T18:26:47.764Z,8.10
2022-11-04T18:31:52.840Z,8.10
2022-11-04T18:36:57.226Z,8.00
2022-11-04T18:42:00.464Z,8.00
2022-11-04T18:47:05.226Z,7.90
2022-11-04T18:52:08.918Z,7.90
2022-11-04T18:57:12.461Z,7.80
2022-11-04T19:02:21.145Z,7.80
2022-11-04T19:07:25.610Z,7.80
2022-11-04T19:12:46.050Z,7.80
2022-11-04T19:17:51.287Z,7.70
2022-11-04T19:22:54.527Z,7.70
2022-11-04T19:28:26.528Z,7.70
2022-11-04T19:33:22.555Z,7.70
2022-11-04T19:38:25.919Z,7.70
2022-11-04T19:43:29.214Z,7.60
2022-11-04T19:48:34.535Z,7.60
2022-11-04T19:53:37.751Z,7.60
2022-11-04T19:58:40.994Z,7.60
2022-11-04T20:03:46.041Z,7.60
2022-11-04T20:08:50.024Z,7.50
2022-11-04T20:13:53.372Z,7.50
2022-11-04T20:19:00.823Z,7.60
2022-11-04T20:24:06.202Z,7.60
2022-11-04T20:29:09.445Z,7.50
2022-11-04T20:34:16.187Z,7.50
2022-11-04T20:39:22.058Z,7.50
2022-11-04T20:44:25.633Z,7.50
2022-11-04T20:49:30.274Z,7.50
2022-11-04T20:54:33.670Z,7.50
2022-11-04T20:59:36.928Z,7.50
2022-11-04T21:04:41.502Z,7.30
2022-11-04T21:09:45.120Z,7.20
2022-11-04T21:14:48.418Z,7.00
2022-11-04T21:19:54.565Z,6.90
2022-11-04T21:24:57.754Z,6.70
2022-11-04T21:30:01.324Z,6.50
2022-11-04T21:35:06.554Z,6.40
2022-11-04T21:40:10.923Z,6.30
2022-11-04T21:45:14.509Z,6.30
2022-11-04T21:50:19.201Z,6.40
2022-11-04T21:55:22.444Z,6.60
2022-11-04T22:00:26.043Z,6.70
2022-11-04T22:05:30.719Z,6.90
2022-11-04T22:10:37.086Z,7.00
2022-11-04T22:15:57.721Z,7.10
2022-11-04T22:21:06.574Z,7.20
2022-11-04T22:26:12.399Z,7.20
2022-11-04T22:31:19.134Z,7.20
2022-11-04T22:41:52.537Z,7.20
2022-11-04T22:46:55.795Z,7.20
2022-11-04T22:52:00.427Z,7.20
2022-11-04T22:57:03.647Z,7.20
2022-11-04T23:02:07.066Z,7.20
2022-11-04T23:07:11.774Z,7.20
2022-11-04T23:12:32.490Z,7.20
2022-11-04T23:17:53.256Z,7.20
2022-11-04T23:23:18.298Z,7.10
2022-11-04T23:28:39.435Z,7.10
2022-11-04T23:33:59.857Z,7.10
2022-11-04T23:39:04.704Z,7.10
2022-11-04T23:44:28.316Z,7.10
2022-11-04T23:49:49.060Z,7.10
2022-11-04T23:55:11.298Z,7.00
